sensor_id;sensor_type;location;lat;lon;timestamp;P1;durP1;ratioP1;P2;durP2;ratioP2
61903;SDS011;47857;52.270;6.804;2022-11-24T00:01:52;20.08;;;4.88;;
61903;SDS011;47857;52.270;6.804;2022-11-24T00:04:18;23.58;;;5.28;;
61903;SDS011;47857;52.270;6.804;2022-11-24T00:06:43;21.60;;;4.43;;
61903;SDS011;47857;52.270;6.804;2022-11-24T00:09:09;22.35;;;4.20;;
61903;SDS011;47857;52.270;6.804;2022-11-24T00:11:37;19.85;;;4.60;;
61903;SDS011;47857;52.270;6.804;2022-11-24T00:14:03;22.63;;;4.90;;
61903;SDS011;47857;52.270;6.804;2022-11-24T00:16:31;23.05;;;4.55;;
61903;SDS011;47857;52.270;6.804;2022-11-24T00:18:58;21.52;;;4.53;;
61903;SDS011;47857;52.270;6.804;2022-11-24T00:21:26;26.13;;;4.70;;
61903;SDS011;47857;52.270;6.804;2022-11-24T00:23:52;25.70;;;4.97;;
61903;SDS011;47857;52.270;6.804;2022-11-24T00:26:18;26.23;;;4.93;;
61903;SDS011;47857;52.270;6.804;2022-11-24T00:28:46;26.65;;;4.57;;
61903;SDS011;47857;52.270;6.804;2022-11-24T00:31:17;26.52;;;4.75;;
61903;SDS011;47857;52.270;6.804;2022-11-24T00:36:16;26.40;;;4.22;;
61903;SDS011;47857;52.270;6.804;2022-11-24T00:38:42;25.98;;;4.53;;
61903;SDS011;47857;52.270;6.804;2022-11-24T00:41:08;22.80;;;4.30;;
61903;SDS011;47857;52.270;6.804;2022-11-24T00:43:34;23.77;;;4.22;;
61903;SDS011;47857;52.270;6.804;2022-11-24T00:45:59;26.20;;;4.60;;
61903;SDS011;47857;52.270;6.804;2022-11-24T00:48:25;25.25;;;4.65;;
61903;SDS011;47857;52.270;6.804;2022-11-24T00:50:57;30.30;;;4.30;;
61903;SDS011;47857;52.270;6.804;2022-11-24T00:53:24;18.55;;;3.67;;
61903;SDS011;47857;52.270;6.804;2022-11-24T00:55:49;27.85;;;4.40;;
61903;SDS011;47857;52.270;6.804;2022-11-24T00:58:15;26.33;;;4.53;;
61903;SDS011;47857;52.270;6.804;2022-11-24T01:00:41;28.92;;;4.43;;
61903;SDS011;47857;52.270;6.804;2022-11-24T01:03:06;25.85;;;4.15;;
61903;SDS011;47857;52.270;6.804;2022-11-24T01:05:34;22.65;;;4.15;;
61903;SDS011;47857;52.270;6.804;2022-11-24T01:08:00;25.73;;;4.55;;
61903;SDS011;47857;52.270;6.804;2022-11-24T01:10:26;22.52;;;4.05;;
61903;SDS011;47857;52.270;6.804;2022-11-24T01:12:51;23.65;;;3.88;;
61903;SDS011;47857;52.270;6.804;2022-11-24T01:15:17;28.02;;;4.50;;
61903;SDS011;47857;52.270;6.804;2022-11-24T01:17:43;22.80;;;4.05;;
61903;SDS011;47857;52.270;6.804;2022-11-24T01:20:08;25.92;;;4.40;;
61903;SDS011;47857;52.270;6.804;2022-11-24T01:22:34;27.10;;;4.65;;
61903;SDS011;47857;52.270;6.804;2022-11-24T01:25:00;28.25;;;4.45;;
61903;SDS011;47857;52.270;6.804;2022-11-24T01:27:25;24.17;;;4.15;;
61903;SDS011;47857;52.270;6.804;2022-11-24T01:29:50;27.38;;;3.88;;
61903;SDS011;47857;52.270;6.804;2022-11-24T01:32:16;22.17;;;3.72;;
61903;SDS011;47857;52.270;6.804;2022-11-24T01:34:41;28.33;;;4.43;;
61903;SDS011;47857;52.270;6.804;2022-11-24T01:37:07;30.35;;;4.35;;
61903;SDS011;47857;52.270;6.804;2022-11-24T01:39:32;26.27;;;4.07;;
61903;SDS011;47857;52.270;6.804;2022-11-24T01:42:00;22.02;;;4.18;;
61903;SDS011;47857;52.270;6.804;2022-11-24T01:44:27;22.73;;;4.15;;
61903;SDS011;47857;52.270;6.804;2022-11-24T01:47:12;24.23;;;4.25;;
61903;SDS011;47857;52.270;6.804;2022-11-24T01:49:57;19.75;;;3.65;;
61903;SDS011;47857;52.270;6.804;2022-11-24T01:52:28;26.05;;;5.00;;
61903;SDS011;47857;52.270;6.804;2022-11-24T01:54:58;22.13;;;2.95;;
61903;SDS011;47857;52.270;6.804;2022-11-24T01:57:30;21.55;;;3.75;;
61903;SDS011;47857;52.270;6.804;2022-11-24T01:59:59;23.13;;;3.63;;
61903;SDS011;47857;52.270;6.804;2022-11-24T02:02:38;28.00;;;4.43;;
61903;SDS011;47857;52.270;6.804;2022-11-24T02:05:07;26.55;;;4.15;;
61903;SDS011;47857;52.270;6.804;2022-11-24T02:07:35;28.40;;;4.03;;
61903;SDS011;47857;52.270;6.804;2022-11-24T02:10:03;22.15;;;3.92;;
61903;SDS011;47857;52.270;6.804;2022-11-24T02:12:32;20.75;;;3.83;;
61903;SDS011;47857;52.270;6.804;2022-11-24T02:14:58;26.58;;;3.75;;
61903;SDS011;47857;52.270;6.804;2022-11-24T02:17:23;24.58;;;3.17;;
61903;SDS011;47857;52.270;6.804;2022-11-24T02:19:56;20.17;;;3.40;;
61903;SDS011;47857;52.270;6.804;2022-11-24T02:22:38;23.90;;;3.78;;
61903;SDS011;47857;52.270;6.804;2022-11-24T02:27:34;22.02;;;3.55;;
61903;SDS011;47857;52.270;6.804;2022-11-24T02:30:00;19.80;;;3.40;;
61903;SDS011;47857;52.270;6.804;2022-11-24T02:32:25;18.38;;;3.72;;
61903;SDS011;47857;52.270;6.804;2022-11-24T02:34:58;21.63;;;3.95;;
61903;SDS011;47857;52.270;6.804;2022-11-24T02:39:51;22.15;;;3.65;;
61903;SDS011;47857;52.270;6.804;2022-11-24T02:42:16;21.33;;;3.30;;
61903;SDS011;47857;52.270;6.804;2022-11-24T02:44:43;24.00;;;3.85;;
61903;SDS011;47857;52.270;6.804;2022-11-24T02:47:12;23.60;;;4.15;;
61903;SDS011;47857;52.270;6.804;2022-11-24T02:49:38;25.23;;;4.45;;
61903;SDS011;47857;52.270;6.804;2022-11-24T02:52:04;22.83;;;4.15;;
61903;SDS011;47857;52.270;6.804;2022-11-24T02:54:30;21.75;;;3.53;;
61903;SDS011;47857;52.270;6.804;2022-11-24T02:56:56;27.27;;;4.05;;
61903;SDS011;47857;52.270;6.804;2022-11-24T02:59:22;23.08;;;3.70;;
61903;SDS011;47857;52.270;6.804;2022-11-24T03:01:47;21.77;;;4.10;;
61903;SDS011;47857;52.270;6.804;2022-11-24T03:04:13;20.83;;;3.80;;
61903;SDS011;47857;52.270;6.804;2022-11-24T03:06:38;21.58;;;3.65;;
61903;SDS011;47857;52.270;6.804;2022-11-24T03:09:04;25.30;;;3.63;;
61903;SDS011;47857;52.270;6.804;2022-11-24T03:11:30;21.70;;;3.78;;
61903;SDS011;47857;52.270;6.804;2022-11-24T03:13:55;23.35;;;3.67;;
61903;SDS011;47857;52.270;6.804;2022-11-24T03:16:21;24.00;;;3.83;;
61903;SDS011;47857;52.270;6.804;2022-11-24T03:18:46;20.30;;;3.53;;
61903;SDS011;47857;52.270;6.804;2022-11-24T03:21:15;22.23;;;3.63;;
61903;SDS011;47857;52.270;6.804;2022-11-24T03:23:40;19.58;;;3.25;;
61903;SDS011;47857;52.270;6.804;2022-11-24T03:26:06;16.52;;;2.92;;
61903;SDS011;47857;52.270;6.804;2022-11-24T03:28:42;24.15;;;3.47;;
61903;SDS011;47857;52.270;6.804;2022-11-24T03:31:08;16.42;;;3.33;;
61903;SDS011;47857;52.270;6.804;2022-11-24T03:33:34;17.17;;;3.47;;
61903;SDS011;47857;52.270;6.804;2022-11-24T03:36:00;24.40;;;3.72;;
61903;SDS011;47857;52.270;6.804;2022-11-24T03:38:26;19.80;;;3.65;;
61903;SDS011;47857;52.270;6.804;2022-11-24T03:40:51;17.92;;;3.33;;
61903;SDS011;47857;52.270;6.804;2022-11-24T03:43:17;19.90;;;3.45;;
61903;SDS011;47857;52.270;6.804;2022-11-24T03:45:46;25.05;;;3.80;;
61903;SDS011;47857;52.270;6.804;2022-11-24T03:48:12;21.35;;;3.35;;
61903;SDS011;47857;52.270;6.804;2022-11-24T03:50:38;22.48;;;3.45;;
61903;SDS011;47857;52.270;6.804;2022-11-24T03:53:04;25.45;;;4.28;;
61903;SDS011;47857;52.270;6.804;2022-11-24T03:55:29;22.13;;;3.58;;
61903;SDS011;47857;52.270;6.804;2022-11-24T03:57:55;26.70;;;3.60;;
61903;SDS011;47857;52.270;6.804;2022-11-24T04:00:20;22.00;;;3.40;;
61903;SDS011;47857;52.270;6.804;2022-11-24T04:02:46;25.42;;;3.45;;
61903;SDS011;47857;52.270;6.804;2022-11-24T04:05:12;21.95;;;3.72;;
61903;SDS011;47857;52.270;6.804;2022-11-24T04:07:38;21.65;;;3.65;;
61903;SDS011;47857;52.270;6.804;2022-11-24T04:10:03;21.58;;;3.75;;
61903;SDS011;47857;52.270;6.804;2022-11-24T04:12:29;23.65;;;3.28;;
61903;SDS011;47857;52.270;6.804;2022-11-24T04:15:14;24.40;;;4.13;;
61903;SDS011;47857;52.270;6.804;2022-11-24T04:17:40;22.25;;;3.85;;
61903;SDS011;47857;52.270;6.804;2022-11-24T04:20:06;19.25;;;3.03;;
61903;SDS011;47857;52.270;6.804;2022-11-24T04:22:32;25.05;;;3.38;;
61903;SDS011;47857;52.270;6.804;2022-11-24T04:24:58;22.65;;;3.90;;
61903;SDS011;47857;52.270;6.804;2022-11-24T04:27:23;25.42;;;4.47;;
61903;SDS011;47857;52.270;6.804;2022-11-24T04:29:49;28.90;;;3.75;;
61903;SDS011;47857;52.270;6.804;2022-11-24T04:32:15;21.83;;;3.42;;
61903;SDS011;47857;52.270;6.804;2022-11-24T04:34:41;22.83;;;3.60;;
61903;SDS011;47857;52.270;6.804;2022-11-24T04:37:06;21.33;;;3.50;;
61903;SDS011;47857;52.270;6.804;2022-11-24T04:39:32;25.45;;;3.72;;
61903;SDS011;47857;52.270;6.804;2022-11-24T04:41:58;22.55;;;3.92;;
61903;SDS011;47857;52.270;6.804;2022-11-24T04:44:23;32.00;;;4.57;;
61903;SDS011;47857;52.270;6.804;2022-11-24T04:46:49;24.65;;;3.92;;
61903;SDS011;47857;52.270;6.804;2022-11-24T04:49:14;25.88;;;3.70;;
61903;SDS011;47857;52.270;6.804;2022-11-24T04:51:40;24.75;;;3.58;;
61903;SDS011;47857;52.270;6.804;2022-11-24T04:54:05;24.67;;;3.50;;
61903;SDS011;47857;52.270;6.804;2022-11-24T04:56:32;23.23;;;3.65;;
61903;SDS011;47857;52.270;6.804;2022-11-24T04:58:58;24.27;;;3.50;;
61903;SDS011;47857;52.270;6.804;2022-11-24T05:01:24;20.48;;;4.10;;
61903;SDS011;47857;52.270;6.804;2022-11-24T05:03:51;22.95;;;4.22;;
61903;SDS011;47857;52.270;6.804;2022-11-24T05:06:18;25.33;;;4.13;;
61903;SDS011;47857;52.270;6.804;2022-11-24T05:08:45;26.77;;;5.20;;
61903;SDS011;47857;52.270;6.804;2022-11-24T05:11:11;27.02;;;6.13;;
61903;SDS011;47857;52.270;6.804;2022-11-24T05:13:37;28.35;;;5.80;;
61903;SDS011;47857;52.270;6.804;2022-11-24T05:16:02;29.58;;;6.05;;
61903;SDS011;47857;52.270;6.804;2022-11-24T05:18:28;27.58;;;5.85;;
61903;SDS011;47857;52.270;6.804;2022-11-24T05:20:54;28.88;;;6.55;;
61903;SDS011;47857;52.270;6.804;2022-11-24T05:23:19;29.58;;;4.70;;
61903;SDS011;47857;52.270;6.804;2022-11-24T05:25:45;20.92;;;4.55;;
61903;SDS011;47857;52.270;6.804;2022-11-24T05:28:10;29.10;;;4.47;;
61903;SDS011;47857;52.270;6.804;2022-11-24T05:30:37;26.40;;;4.03;;
61903;SDS011;47857;52.270;6.804;2022-11-24T05:33:06;32.50;;;4.70;;
61903;SDS011;47857;52.270;6.804;2022-11-24T05:35:34;27.27;;;4.20;;
61903;SDS011;47857;52.270;6.804;2022-11-24T05:38:00;21.35;;;3.97;;
61903;SDS011;47857;52.270;6.804;2022-11-24T05:40:26;26.00;;;4.10;;
61903;SDS011;47857;52.270;6.804;2022-11-24T05:42:52;26.58;;;4.13;;
61903;SDS011;47857;52.270;6.804;2022-11-24T05:45:19;21.88;;;3.78;;
61903;SDS011;47857;52.270;6.804;2022-11-24T05:47:45;27.42;;;4.30;;
61903;SDS011;47857;52.270;6.804;2022-11-24T05:50:12;27.10;;;4.15;;
61903;SDS011;47857;52.270;6.804;2022-11-24T05:52:38;25.52;;;4.50;;
61903;SDS011;47857;52.270;6.804;2022-11-24T05:55:04;31.17;;;4.38;;
61903;SDS011;47857;52.270;6.804;2022-11-24T05:57:31;27.10;;;4.65;;
61903;SDS011;47857;52.270;6.804;2022-11-24T05:59:56;25.23;;;4.35;;
61903;SDS011;47857;52.270;6.804;2022-11-24T06:02:22;29.73;;;4.70;;
61903;SDS011;47857;52.270;6.804;2022-11-24T06:04:47;28.25;;;4.78;;
61903;SDS011;47857;52.270;6.804;2022-11-24T06:07:13;29.33;;;4.57;;
61903;SDS011;47857;52.270;6.804;2022-11-24T06:09:39;32.50;;;4.72;;
61903;SDS011;47857;52.270;6.804;2022-11-24T06:12:05;24.23;;;4.47;;
61903;SDS011;47857;52.270;6.804;2022-11-24T06:14:31;21.40;;;3.72;;
61903;SDS011;47857;52.270;6.804;2022-11-24T06:16:57;38.75;;;4.65;;
61903;SDS011;47857;52.270;6.804;2022-11-24T06:19:23;29.98;;;4.75;;
61903;SDS011;47857;52.270;6.804;2022-11-24T06:21:48;22.50;;;4.53;;
61903;SDS011;47857;52.270;6.804;2022-11-24T06:24:14;27.13;;;4.28;;
61903;SDS011;47857;52.270;6.804;2022-11-24T06:26:40;26.08;;;3.78;;
61903;SDS011;47857;52.270;6.804;2022-11-24T06:29:05;28.50;;;3.92;;
61903;SDS011;47857;52.270;6.804;2022-11-24T06:31:31;31.92;;;5.10;;
61903;SDS011;47857;52.270;6.804;2022-11-24T06:33:56;27.55;;;4.38;;
61903;SDS011;47857;52.270;6.804;2022-11-24T06:36:22;25.70;;;4.53;;
61903;SDS011;47857;52.270;6.804;2022-11-24T06:38:49;26.13;;;4.40;;
61903;SDS011;47857;52.270;6.804;2022-11-24T06:41:15;22.92;;;3.88;;
61903;SDS011;47857;52.270;6.804;2022-11-24T06:43:42;26.88;;;3.83;;
61903;SDS011;47857;52.270;6.804;2022-11-24T06:46:08;24.08;;;3.75;;
61903;SDS011;47857;52.270;6.804;2022-11-24T06:48:34;21.25;;;3.72;;
61903;SDS011;47857;52.270;6.804;2022-11-24T06:51:00;22.95;;;3.88;;
61903;SDS011;47857;52.270;6.804;2022-11-24T06:53:30;22.92;;;3.75;;
61903;SDS011;47857;52.270;6.804;2022-11-24T06:56:06;22.65;;;3.40;;
61903;SDS011;47857;52.270;6.804;2022-11-24T06:58:33;18.75;;;3.00;;
61903;SDS011;47857;52.270;6.804;2022-11-24T07:00:59;17.30;;;3.25;;
61903;SDS011;47857;52.270;6.804;2022-11-24T07:03:25;19.25;;;3.25;;
61903;SDS011;47857;52.270;6.804;2022-11-24T07:05:57;21.38;;;3.33;;
61903;SDS011;47857;52.270;6.804;2022-11-24T07:08:22;15.70;;;2.72;;
61903;SDS011;47857;52.270;6.804;2022-11-24T07:10:48;13.57;;;2.80;;
61903;SDS011;47857;52.270;6.804;2022-11-24T07:13:14;16.17;;;2.97;;
61903;SDS011;47857;52.270;6.804;2022-11-24T07:15:39;20.45;;;3.15;;
61903;SDS011;47857;52.270;6.804;2022-11-24T07:18:05;18.17;;;2.60;;
61903;SDS011;47857;52.270;6.804;2022-11-24T07:20:30;19.83;;;3.10;;
61903;SDS011;47857;52.270;6.804;2022-11-24T07:22:56;13.95;;;2.83;;
61903;SDS011;47857;52.270;6.804;2022-11-24T07:25:22;17.50;;;2.97;;
61903;SDS011;47857;52.270;6.804;2022-11-24T07:27:54;18.60;;;2.97;;
61903;SDS011;47857;52.270;6.804;2022-11-24T07:30:21;14.82;;;3.15;;
61903;SDS011;47857;52.270;6.804;2022-11-24T07:32:46;17.35;;;4.38;;
61903;SDS011;47857;52.270;6.804;2022-11-24T07:35:12;18.20;;;3.22;;
61903;SDS011;47857;52.270;6.804;2022-11-24T07:37:37;13.73;;;2.70;;
61903;SDS011;47857;52.270;6.804;2022-11-24T07:40:03;12.85;;;2.90;;
61903;SDS011;47857;52.270;6.804;2022-11-24T07:42:29;14.52;;;2.47;;
61903;SDS011;47857;52.270;6.804;2022-11-24T07:44:54;14.40;;;2.75;;
61903;SDS011;47857;52.270;6.804;2022-11-24T07:47:20;13.45;;;2.83;;
61903;SDS011;47857;52.270;6.804;2022-11-24T07:49:45;11.38;;;2.30;;
61903;SDS011;47857;52.270;6.804;2022-11-24T07:52:11;12.73;;;3.20;;
61903;SDS011;47857;52.270;6.804;2022-11-24T07:54:36;15.98;;;2.90;;
61903;SDS011;47857;52.270;6.804;2022-11-24T07:57:02;14.80;;;2.72;;
61903;SDS011;47857;52.270;6.804;2022-11-24T07:59:27;10.85;;;2.70;;
61903;SDS011;47857;52.270;6.804;2022-11-24T08:01:52;15.38;;;3.30;;
61903;SDS011;47857;52.270;6.804;2022-11-24T08:04:18;14.00;;;2.80;;
61903;SDS011;47857;52.270;6.804;2022-11-24T08:06:43;14.80;;;3.00;;
61903;SDS011;47857;52.270;6.804;2022-11-24T08:09:09;16.15;;;3.63;;
61903;SDS011;47857;52.270;6.804;2022-11-24T08:11:34;10.35;;;2.90;;
61903;SDS011;47857;52.270;6.804;2022-11-24T08:14:00;13.05;;;3.03;;
61903;SDS011;47857;52.270;6.804;2022-11-24T08:16:26;13.10;;;2.90;;
61903;SDS011;47857;52.270;6.804;2022-11-24T08:18:52;13.60;;;3.65;;
61903;SDS011;47857;52.270;6.804;2022-11-24T08:21:19;11.10;;;3.40;;
61903;SDS011;47857;52.270;6.804;2022-11-24T08:23:44;15.80;;;3.70;;
61903;SDS011;47857;52.270;6.804;2022-11-24T08:26:11;11.35;;;3.40;;
61903;SDS011;47857;52.270;6.804;2022-11-24T08:28:40;12.85;;;3.30;;
61903;SDS011;47857;52.270;6.804;2022-11-24T08:31:06;13.55;;;3.30;;
61903;SDS011;47857;52.270;6.804;2022-11-24T08:33:33;9.00;;;3.35;;
61903;SDS011;47857;52.270;6.804;2022-11-24T08:36:03;12.45;;;3.75;;
61903;SDS011;47857;52.270;6.804;2022-11-24T08:38:30;9.98;;;3.47;;
61903;SDS011;47857;52.270;6.804;2022-11-24T08:40:58;9.18;;;3.17;;
61903;SDS011;47857;52.270;6.804;2022-11-24T08:43:27;9.65;;;3.42;;
61903;SDS011;47857;52.270;6.804;2022-11-24T08:45:53;11.73;;;3.40;;
61903;SDS011;47857;52.270;6.804;2022-11-24T08:48:19;9.90;;;3.58;;
61903;SDS011;47857;52.270;6.804;2022-11-24T08:50:44;13.05;;;3.72;;
61903;SDS011;47857;52.270;6.804;2022-11-24T08:53:10;12.07;;;3.70;;
61903;SDS011;47857;52.270;6.804;2022-11-24T08:55:35;14.15;;;6.55;;
61903;SDS011;47857;52.270;6.804;2022-11-24T08:58:01;12.35;;;5.03;;
61903;SDS011;47857;52.270;6.804;2022-11-24T09:00:26;11.07;;;4.20;;
61903;SDS011;47857;52.270;6.804;2022-11-24T09:02:55;8.13;;;4.18;;
61903;SDS011;47857;52.270;6.804;2022-11-24T09:05:21;11.23;;;4.30;;
61903;SDS011;47857;52.270;6.804;2022-11-24T09:07:47;10.00;;;4.22;;
61903;SDS011;47857;52.270;6.804;2022-11-24T09:10:12;11.90;;;4.45;;
61903;SDS011;47857;52.270;6.804;2022-11-24T09:12:38;11.93;;;4.78;;
61903;SDS011;47857;52.270;6.804;2022-11-24T09:15:03;9.48;;;4.35;;
61903;SDS011;47857;52.270;6.804;2022-11-24T09:17:29;14.25;;;5.10;;
61903;SDS011;47857;52.270;6.804;2022-11-24T09:19:55;13.18;;;5.13;;
61903;SDS011;47857;52.270;6.804;2022-11-24T09:22:20;8.98;;;5.30;;
61903;SDS011;47857;52.270;6.804;2022-11-24T09:24:46;12.55;;;5.90;;
61903;SDS011;47857;52.270;6.804;2022-11-24T09:27:11;11.95;;;6.00;;
61903;SDS011;47857;52.270;6.804;2022-11-24T09:29:37;12.13;;;5.68;;
61903;SDS011;47857;52.270;6.804;2022-11-24T09:32:02;13.60;;;6.25;;
61903;SDS011;47857;52.270;6.804;2022-11-24T09:34:28;17.02;;;6.57;;
61903;SDS011;47857;52.270;6.804;2022-11-24T09:36:54;17.00;;;6.70;;
61903;SDS011;47857;52.270;6.804;2022-11-24T09:39:19;14.57;;;6.55;;
61903;SDS011;47857;52.270;6.804;2022-11-24T09:42:19;16.15;;;6.55;;
61903;SDS011;47857;52.270;6.804;2022-11-24T09:50:05;12.48;;;6.70;;
61903;SDS011;47857;52.270;6.804;2022-11-24T09:52:55;12.52;;;6.97;;
61903;SDS011;47857;52.270;6.804;2022-11-24T09:55:38;17.05;;;7.57;;
61903;SDS011;47857;52.270;6.804;2022-11-24T10:01:03;15.07;;;7.72;;
61903;SDS011;47857;52.270;6.804;2022-11-24T10:03:52;18.08;;;8.35;;
61903;SDS011;47857;52.270;6.804;2022-11-24T10:06:22;16.35;;;8.88;;
61903;SDS011;47857;52.270;6.804;2022-11-24T10:11:37;19.52;;;8.77;;
61903;SDS011;47857;52.270;6.804;2022-11-24T10:14:16;18.58;;;8.55;;
61903;SDS011;47857;52.270;6.804;2022-11-24T10:17:02;18.80;;;8.68;;
61903;SDS011;47857;52.270;6.804;2022-11-24T10:22:39;16.90;;;8.82;;
61903;SDS011;47857;52.270;6.804;2022-11-24T10:27:54;17.45;;;8.75;;
61903;SDS011;47857;52.270;6.804;2022-11-24T10:30:22;12.70;;;8.60;;
61903;SDS011;47857;52.270;6.804;2022-11-24T10:38:31;27.98;;;14.88;;
61903;SDS011;47857;52.270;6.804;2022-11-24T10:41:06;17.08;;;9.80;;
61903;SDS011;47857;52.270;6.804;2022-11-24T10:43:41;20.83;;;10.35;;
61903;SDS011;47857;52.270;6.804;2022-11-24T10:46:09;26.15;;;11.13;;
61903;SDS011;47857;52.270;6.804;2022-11-24T10:48:40;18.67;;;8.90;;
61903;SDS011;47857;52.270;6.804;2022-11-24T10:54:00;12.70;;;7.88;;
61903;SDS011;47857;52.270;6.804;2022-11-24T10:56:40;16.63;;;8.00;;
61903;SDS011;47857;52.270;6.804;2022-11-24T10:59:51;15.13;;;7.65;;
61903;SDS011;47857;52.270;6.804;2022-11-24T11:02:02;14.63;;;7.20;;
61903;SDS011;47857;52.270;6.804;2022-11-24T11:04:54;14.63;;;7.70;;
61903;SDS011;47857;52.270;6.804;2022-11-24T11:07:20;15.15;;;6.78;;
61903;SDS011;47857;52.270;6.804;2022-11-24T11:09:48;15.00;;;7.03;;
61903;SDS011;47857;52.270;6.804;2022-11-24T11:12:26;16.50;;;7.18;;
61903;SDS011;47857;52.270;6.804;2022-11-24T11:14:52;13.55;;;6.55;;
61903;SDS011;47857;52.270;6.804;2022-11-24T11:17:32;15.20;;;6.50;;
61903;SDS011;47857;52.270;6.804;2022-11-24T11:20:03;15.07;;;6.53;;
61903;SDS011;47857;52.270;6.804;2022-11-24T11:22:34;20.52;;;6.57;;
61903;SDS011;47857;52.270;6.804;2022-11-24T11:27:35;15.90;;;6.82;;
61903;SDS011;47857;52.270;6.804;2022-11-24T11:32:49;18.95;;;6.45;;
61903;SDS011;47857;52.270;6.804;2022-11-24T11:35:19;18.95;;;5.60;;
61903;SDS011;47857;52.270;6.804;2022-11-24T11:37:45;18.40;;;5.88;;
61903;SDS011;47857;52.270;6.804;2022-11-24T11:40:16;19.80;;;6.35;;
61903;SDS011;47857;52.270;6.804;2022-11-24T11:42:49;16.40;;;5.32;;
61903;SDS011;47857;52.270;6.804;2022-11-24T11:45:33;16.83;;;5.95;;
61903;SDS011;47857;52.270;6.804;2022-11-24T11:50:33;22.08;;;6.03;;
61903;SDS011;47857;52.270;6.804;2022-11-24T12:09:47;14.90;;;3.97;;
61903;SDS011;47857;52.270;6.804;2022-11-24T12:15:48;16.88;;;3.53;;
61903;SDS011;47857;52.270;6.804;2022-11-24T12:34:22;20.45;;;4.10;;
61903;SDS011;47857;52.270;6.804;2022-11-24T12:39:44;24.13;;;4.25;;
61903;SDS011;47857;52.270;6.804;2022-11-24T12:50:13;13.93;;;3.35;;
61903;SDS011;47857;52.270;6.804;2022-11-24T12:52:50;24.17;;;4.03;;
61903;SDS011;47857;52.270;6.804;2022-11-24T12:55:19;16.90;;;4.18;;
61903;SDS011;47857;52.270;6.804;2022-11-24T13:00:37;20.13;;;3.63;;
61903;SDS011;47857;52.270;6.804;2022-11-24T13:03:15;20.58;;;3.67;;
61903;SDS011;47857;52.270;6.804;2022-11-24T13:06:00;14.98;;;3.40;;
61903;SDS011;47857;52.270;6.804;2022-11-24T13:08:29;19.10;;;4.00;;
61903;SDS011;47857;52.270;6.804;2022-11-24T13:11:23;15.15;;;3.83;;
61903;SDS011;47857;52.270;6.804;2022-11-24T13:14:04;18.45;;;4.13;;
61903;SDS011;47857;52.270;6.804;2022-11-24T13:16:31;15.48;;;3.50;;
61903;SDS011;47857;52.270;6.804;2022-11-24T13:19:07;20.40;;;4.20;;
61903;SDS011;47857;52.270;6.804;2022-11-24T13:24:26;18.25;;;3.55;;
61903;SDS011;47857;52.270;6.804;2022-11-24T13:29:43;17.13;;;3.65;;
61903;SDS011;47857;52.270;6.804;2022-11-24T13:42:22;19.60;;;3.70;;
61903;SDS011;47857;52.270;6.804;2022-11-24T13:50:01;16.35;;;3.47;;
61903;SDS011;47857;52.270;6.804;2022-11-24T13:55:01;14.32;;;3.42;;
61903;SDS011;47857;52.270;6.804;2022-11-24T13:57:33;16.95;;;3.45;;
61903;SDS011;47857;52.270;6.804;2022-11-24T14:00:00;19.55;;;3.42;;
61903;SDS011;47857;52.270;6.804;2022-11-24T14:02:29;18.15;;;3.58;;
61903;SDS011;47857;52.270;6.804;2022-11-24T14:04:58;16.73;;;3.53;;
61903;SDS011;47857;52.270;6.804;2022-11-24T14:07:24;22.27;;;3.50;;
61903;SDS011;47857;52.270;6.804;2022-11-24T14:09:49;18.63;;;3.55;;
61903;SDS011;47857;52.270;6.804;2022-11-24T14:12:20;18.60;;;3.95;;
61903;SDS011;47857;52.270;6.804;2022-11-24T14:14:50;19.17;;;3.67;;
61903;SDS011;47857;52.270;6.804;2022-11-24T14:17:21;16.20;;;3.25;;
61903;SDS011;47857;52.270;6.804;2022-11-24T14:19:48;22.52;;;3.97;;
61903;SDS011;47857;52.270;6.804;2022-11-24T14:22:19;21.00;;;4.05;;
61903;SDS011;47857;52.270;6.804;2022-11-24T14:25:04;19.27;;;3.65;;
61903;SDS011;47857;52.270;6.804;2022-11-24T14:27:33;18.67;;;3.47;;
61903;SDS011;47857;52.270;6.804;2022-11-24T14:30:15;19.75;;;3.50;;
61903;SDS011;47857;52.270;6.804;2022-11-24T14:35:27;16.65;;;3.70;;
61903;SDS011;47857;52.270;6.804;2022-11-24T14:37:58;16.60;;;3.42;;
61903;SDS011;47857;52.270;6.804;2022-11-24T14:43:02;20.83;;;3.85;;
61903;SDS011;47857;52.270;6.804;2022-11-24T14:45:28;20.90;;;4.38;;
61903;SDS011;47857;52.270;6.804;2022-11-24T14:47:54;20.85;;;4.00;;
61903;SDS011;47857;52.270;6.804;2022-11-24T14:50:20;21.00;;;3.67;;
61903;SDS011;47857;52.270;6.804;2022-11-24T14:57:52;20.23;;;3.65;;
61903;SDS011;47857;52.270;6.804;2022-11-24T15:00:19;20.48;;;4.35;;
61903;SDS011;47857;52.270;6.804;2022-11-24T15:02:55;19.02;;;3.88;;
61903;SDS011;47857;52.270;6.804;2022-11-24T15:08:20;24.95;;;4.90;;
61903;SDS011;47857;52.270;6.804;2022-11-24T15:10:47;31.80;;;5.90;;
61903;SDS011;47857;52.270;6.804;2022-11-24T15:13:22;32.35;;;5.95;;
61903;SDS011;47857;52.270;6.804;2022-11-24T15:15:50;21.63;;;4.82;;
61903;SDS011;47857;52.270;6.804;2022-11-24T15:18:25;23.45;;;5.32;;
61903;SDS011;47857;52.270;6.804;2022-11-24T15:20:55;28.80;;;5.88;;
61903;SDS011;47857;52.270;6.804;2022-11-24T15:23:27;24.08;;;6.30;;
61903;SDS011;47857;52.270;6.804;2022-11-24T15:25:54;24.92;;;5.07;;
61903;SDS011;47857;52.270;6.804;2022-11-24T15:28:20;24.75;;;5.72;;
61903;SDS011;47857;52.270;6.804;2022-11-24T15:30:53;30.05;;;5.97;;
61903;SDS011;47857;52.270;6.804;2022-11-24T15:33:29;29.65;;;5.65;;
61903;SDS011;47857;52.270;6.804;2022-11-24T15:35:54;28.20;;;6.68;;
61903;SDS011;47857;52.270;6.804;2022-11-24T15:38:20;33.90;;;7.85;;
61903;SDS011;47857;52.270;6.804;2022-11-24T15:40:47;29.08;;;6.65;;
61903;SDS011;47857;52.270;6.804;2022-11-24T15:43:18;34.55;;;12.07;;
61903;SDS011;47857;52.270;6.804;2022-11-24T15:45:51;52.78;;;18.50;;
61903;SDS011;47857;52.270;6.804;2022-11-24T15:48:17;45.15;;;17.58;;
61903;SDS011;47857;52.270;6.804;2022-11-24T15:50:42;39.67;;;12.65;;
61903;SDS011;47857;52.270;6.804;2022-11-24T15:53:14;35.50;;;12.93;;
61903;SDS011;47857;52.270;6.804;2022-11-24T15:55:43;50.55;;;18.02;;
61903;SDS011;47857;52.270;6.804;2022-11-24T15:58:12;36.63;;;13.35;;
61903;SDS011;47857;52.270;6.804;2022-11-24T16:00:38;30.23;;;9.07;;
61903;SDS011;47857;52.270;6.804;2022-11-24T16:03:07;25.77;;;5.82;;
61903;SDS011;47857;52.270;6.804;2022-11-24T16:05:32;22.33;;;5.18;;
61903;SDS011;47857;52.270;6.804;2022-11-24T16:07:58;30.85;;;6.43;;
61903;SDS011;47857;52.270;6.804;2022-11-24T16:10:25;26.25;;;5.70;;
61903;SDS011;47857;52.270;6.804;2022-11-24T16:12:53;27.38;;;5.90;;
61903;SDS011;47857;52.270;6.804;2022-11-24T16:15:18;28.25;;;5.60;;
61903;SDS011;47857;52.270;6.804;2022-11-24T16:17:44;24.27;;;5.13;;
61903;SDS011;47857;52.270;6.804;2022-11-24T16:20:10;21.92;;;5.05;;
61903;SDS011;47857;52.270;6.804;2022-11-24T16:22:36;21.98;;;4.53;;
61903;SDS011;47857;52.270;6.804;2022-11-24T16:25:02;29.48;;;5.28;;
61903;SDS011;47857;52.270;6.804;2022-11-24T16:27:28;21.90;;;5.18;;
61903;SDS011;47857;52.270;6.804;2022-11-24T16:29:54;28.02;;;6.13;;
61903;SDS011;47857;52.270;6.804;2022-11-24T16:32:20;23.92;;;5.07;;
61903;SDS011;47857;52.270;6.804;2022-11-24T16:34:45;28.45;;;6.03;;
61903;SDS011;47857;52.270;6.804;2022-11-24T16:37:11;25.20;;;6.78;;
61903;SDS011;47857;52.270;6.804;2022-11-24T16:39:36;28.15;;;7.72;;
61903;SDS011;47857;52.270;6.804;2022-11-24T16:42:02;29.42;;;7.88;;
61903;SDS011;47857;52.270;6.804;2022-11-24T16:44:28;29.00;;;7.65;;
61903;SDS011;47857;52.270;6.804;2022-11-24T16:46:53;32.35;;;7.97;;